Abbot Village, Maine
Current Conditions -  °F | °C
As of 2:32 AM on Thursday 18 Dec 2014 (Local Time) from KBGR Reporting Station
Light Snow Light Snow  
Wind Chill: 24°   Ceiling: 800
Heat Index: 33°   Visibility: 2mi
Dew Point: 31°   Wind: 13mph
Humidity: 92%   Direction: 340°NNW
Pressure: 29.59"   Gusts: NA
Location:  45.19°N, 69.45°W
Report Text: KBGR 180732Z 34011KT 2SM -SN BR BKN008 OVC014 01/M01 A2959 RMK AO2 P0000 T00061006
Loading
Personal Weather Stations






























Interactive Weather Map New forecast layout! Learn more

10-Day Weather Forecast

Advertisements
Track Severe Weather on mobile